sensor_id;sensor_type;location;lat;lon;timestamp;pressure;altitude;pressure_sealevel;temperature;humidity
82311;BME280;72015;51.330;12.316;2023-12-29T00:00:25;99949.42;;;3.86;55.84
82311;BME280;72015;51.330;12.316;2023-12-29T00:04:49;99949.28;;;3.81;56.92
82311;BME280;72015;51.330;12.316;2023-12-29T00:09:14;99947.56;;;3.76;56.76
82311;BME280;72015;51.330;12.316;2023-12-29T00:13:37;99942.86;;;3.74;57.03
82311;BME280;72015;51.330;12.316;2023-12-29T00:18:01;99941.97;;;3.64;57.41
82311;BME280;72015;51.330;12.316;2023-12-29T00:22:25;99938.43;;;3.65;56.80
82311;BME280;72015;51.330;12.316;2023-12-29T00:26:49;99934.63;;;3.70;56.29
82311;BME280;72015;51.330;12.316;2023-12-29T00:31:15;99932.22;;;3.76;56.18
82311;BME280;72015;51.330;12.316;2023-12-29T00:35:37;99928.17;;;3.89;55.16
82311;BME280;72015;51.330;12.316;2023-12-29T00:40:01;99927.76;;;3.91;56.26
82311;BME280;72015;51.330;12.316;2023-12-29T00:44:25;99922.22;;;3.96;56.16
82311;BME280;72015;51.330;12.316;2023-12-29T00:48:49;99915.01;;;4.03;55.67
82311;BME280;72015;51.330;12.316;2023-12-29T00:53:13;99905.60;;;4.13;55.18
82311;BME280;72015;51.330;12.316;2023-12-29T00:57:37;99898.11;;;4.10;56.32
82311;BME280;72015;51.330;12.316;2023-12-29T01:02:01;99892.74;;;4.03;56.42
82311;BME280;72015;51.330;12.316;2023-12-29T01:06:25;99888.14;;;3.99;56.60
82311;BME280;72015;51.330;12.316;2023-12-29T01:10:49;99885.16;;;4.03;56.60
82311;BME280;72015;51.330;12.316;2023-12-29T01:15:13;99884.77;;;3.95;57.76
82311;BME280;72015;51.330;12.316;2023-12-29T01:19:36;99886.60;;;3.94;56.96
82311;BME280;72015;51.330;12.316;2023-12-29T01:24:00;99885.36;;;3.92;57.02
82311;BME280;72015;51.330;12.316;2023-12-29T01:28:24;99884.75;;;4.01;55.95
82311;BME280;72015;51.330;12.316;2023-12-29T01:32:48;99883.08;;;4.07;55.84
82311;BME280;72015;51.330;12.316;2023-12-29T01:37:12;99880.62;;;4.03;56.90
82311;BME280;72015;51.330;12.316;2023-12-29T01:41:36;99878.33;;;3.99;56.93
82311;BME280;72015;51.330;12.316;2023-12-29T01:46:00;99876.43;;;3.99;56.58
82311;BME280;72015;51.330;12.316;2023-12-29T01:50:24;99873.97;;;3.96;57.09
82311;BME280;72015;51.330;12.316;2023-12-29T01:54:49;99873.21;;;4.00;56.61
82311;BME280;72015;51.330;12.316;2023-12-29T01:59:12;99871.95;;;4.10;55.58
82311;BME280;72015;51.330;12.316;2023-12-29T02:03:36;99867.07;;;4.14;56.83
82311;BME280;72015;51.330;12.316;2023-12-29T02:08:00;99862.13;;;4.12;56.21
82311;BME280;72015;51.330;12.316;2023-12-29T02:12:25;99856.70;;;4.08;56.48
82311;BME280;72015;51.330;12.316;2023-12-29T02:21:12;99845.64;;;4.10;55.42
82311;BME280;72015;51.330;12.316;2023-12-29T02:25:36;99840.50;;;4.15;55.63
82311;BME280;72015;51.330;12.316;2023-12-29T02:30:03;99837.22;;;4.12;56.46
82311;BME280;72015;51.330;12.316;2023-12-29T02:34:24;99834.42;;;4.11;56.10
82311;BME280;72015;51.330;12.316;2023-12-29T02:38:48;99833.65;;;4.13;55.74
82311;BME280;72015;51.330;12.316;2023-12-29T02:43:12;99829.41;;;4.20;55.40
82311;BME280;72015;51.330;12.316;2023-12-29T02:47:36;99825.70;;;4.19;56.23
82311;BME280;72015;51.330;12.316;2023-12-29T02:52:00;99820.19;;;4.17;56.30
82311;BME280;72015;51.330;12.316;2023-12-29T02:56:24;99814.18;;;4.14;56.63
82311;BME280;72015;51.330;12.316;2023-12-29T03:00:48;99809.26;;;4.05;57.82
82311;BME280;72015;51.330;12.316;2023-12-29T03:05:13;99805.59;;;3.98;57.78
82311;BME280;72015;51.330;12.316;2023-12-29T03:09:36;99801.51;;;3.89;57.43
82311;BME280;72015;51.330;12.316;2023-12-29T03:14:00;99795.64;;;3.92;57.25
82311;BME280;72015;51.330;12.316;2023-12-29T03:18:24;99790.67;;;3.96;56.75
82311;BME280;72015;51.330;12.316;2023-12-29T03:22:48;99785.58;;;4.07;56.13
82311;BME280;72015;51.330;12.316;2023-12-29T03:27:12;99781.36;;;4.14;56.53
82311;BME280;72015;51.330;12.316;2023-12-29T03:31:36;99778.19;;;4.19;55.88
82311;BME280;72015;51.330;12.316;2023-12-29T03:36:00;99775.73;;;4.28;54.65
82311;BME280;72015;51.330;12.316;2023-12-29T03:40:24;99771.50;;;4.43;53.76
82311;BME280;72015;51.330;12.316;2023-12-29T03:44:48;99768.45;;;4.45;55.15
82311;BME280;72015;51.330;12.316;2023-12-29T03:49:12;99762.07;;;4.34;55.87
82311;BME280;72015;51.330;12.316;2023-12-29T03:53:36;99758.57;;;4.28;56.05
82311;BME280;72015;51.330;12.316;2023-12-29T03:58:01;99759.63;;;4.20;56.09
82311;BME280;72015;51.330;12.316;2023-12-29T04:02:24;99757.75;;;4.15;55.68
82311;BME280;72015;51.330;12.316;2023-12-29T04:06:48;99755.05;;;4.13;55.55
82311;BME280;72015;51.330;12.316;2023-12-29T04:11:12;99753.89;;;4.24;54.77
82311;BME280;72015;51.330;12.316;2023-12-29T04:15:36;99754.36;;;4.39;53.53
82311;BME280;72015;51.330;12.316;2023-12-29T04:20:01;99756.17;;;4.54;53.58
82311;BME280;72015;51.330;12.316;2023-12-29T04:24:25;99756.68;;;4.62;53.36
82311;BME280;72015;51.330;12.316;2023-12-29T04:28:49;99757.73;;;4.63;54.56
82311;BME280;72015;51.330;12.316;2023-12-29T04:33:13;99755.27;;;4.62;54.71
82311;BME280;72015;51.330;12.316;2023-12-29T04:37:37;99753.45;;;4.71;53.60
82311;BME280;72015;51.330;12.316;2023-12-29T04:42:01;99754.58;;;4.74;54.44
82311;BME280;72015;51.330;12.316;2023-12-29T04:46:25;99754.44;;;4.72;54.45
82311;BME280;72015;51.330;12.316;2023-12-29T04:50:49;99755.38;;;4.68;54.75
82311;BME280;72015;51.330;12.316;2023-12-29T04:55:13;99753.11;;;4.72;53.94
82311;BME280;72015;51.330;12.316;2023-12-29T04:59:37;99750.78;;;4.67;55.28
82311;BME280;72015;51.330;12.316;2023-12-29T05:04:01;99747.19;;;4.61;56.03
82311;BME280;72015;51.330;12.316;2023-12-29T05:08:25;99745.32;;;4.48;56.69
82311;BME280;72015;51.330;12.316;2023-12-29T05:12:49;99745.73;;;4.33;57.66
82311;BME280;72015;51.330;12.316;2023-12-29T05:17:13;99747.73;;;4.32;55.57
82311;BME280;72015;51.330;12.316;2023-12-29T05:21:37;99749.06;;;4.29;55.80
82311;BME280;72015;51.330;12.316;2023-12-29T05:26:01;99747.78;;;4.24;56.67
82311;BME280;72015;51.330;12.316;2023-12-29T05:30:25;99744.74;;;4.23;55.92
82311;BME280;72015;51.330;12.316;2023-12-29T05:34:49;99742.22;;;4.29;55.39
82311;BME280;72015;51.330;12.316;2023-12-29T05:39:13;99739.78;;;4.25;55.43
82311;BME280;72015;51.330;12.316;2023-12-29T05:43:38;99739.92;;;4.17;55.51
82311;BME280;72015;51.330;12.316;2023-12-29T05:48:01;99743.50;;;4.12;55.13
82311;BME280;72015;51.330;12.316;2023-12-29T05:52:25;99746.86;;;4.16;54.61
82311;BME280;72015;51.330;12.316;2023-12-29T05:56:49;99748.35;;;4.15;54.79
82311;BME280;72015;51.330;12.316;2023-12-29T06:01:13;99748.58;;;4.17;54.76
82311;BME280;72015;51.330;12.316;2023-12-29T06:05:37;99746.22;;;4.13;55.47
82311;BME280;72015;51.330;12.316;2023-12-29T06:10:01;99742.31;;;4.00;56.28
82311;BME280;72015;51.330;12.316;2023-12-29T06:14:25;99738.81;;;3.93;56.08
82311;BME280;72015;51.330;12.316;2023-12-29T06:18:49;99731.17;;;3.84;56.63
82311;BME280;72015;51.330;12.316;2023-12-29T06:23:13;99725.08;;;3.82;55.93
82311;BME280;72015;51.330;12.316;2023-12-29T06:27:38;99718.55;;;3.83;55.56
82311;BME280;72015;51.330;12.316;2023-12-29T06:32:02;99714.93;;;3.88;55.37
82311;BME280;72015;51.330;12.316;2023-12-29T06:36:25;99713.69;;;3.90;55.36
82311;BME280;72015;51.330;12.316;2023-12-29T06:40:49;99712.77;;;3.91;55.24
82311;BME280;72015;51.330;12.316;2023-12-29T06:45:13;99709.25;;;3.82;56.39
82311;BME280;72015;51.330;12.316;2023-12-29T06:49:37;99706.27;;;3.71;56.95
82311;BME280;72015;51.330;12.316;2023-12-29T06:54:01;99703.02;;;3.63;56.73
82311;BME280;72015;51.330;12.316;2023-12-29T06:58:25;99698.56;;;3.63;56.22
82311;BME280;72015;51.330;12.316;2023-12-29T07:02:49;99697.60;;;3.72;55.23
82311;BME280;72015;51.330;12.316;2023-12-29T07:07:13;99699.88;;;3.79;55.36
82311;BME280;72015;51.330;12.316;2023-12-29T07:11:37;99702.91;;;3.80;56.04
82311;BME280;72015;51.330;12.316;2023-12-29T07:16:01;99704.58;;;3.77;56.33
82311;BME280;72015;51.330;12.316;2023-12-29T07:20:25;99708.39;;;3.74;56.52
82311;BME280;72015;51.330;12.316;2023-12-29T07:24:49;99710.17;;;3.79;55.88
82311;BME280;72015;51.330;12.316;2023-12-29T07:29:13;99710.08;;;3.81;56.32
82311;BME280;72015;51.330;12.316;2023-12-29T07:33:37;99708.23;;;3.85;56.09
82311;BME280;72015;51.330;12.316;2023-12-29T07:38:02;99704.28;;;3.84;56.60
82311;BME280;72015;51.330;12.316;2023-12-29T07:42:26;99699.19;;;3.86;56.36
82311;BME280;72015;51.330;12.316;2023-12-29T07:46:50;99701.42;;;3.82;57.21
82311;BME280;72015;51.330;12.316;2023-12-29T07:51:14;99697.41;;;3.77;57.51
82311;BME280;72015;51.330;12.316;2023-12-29T07:55:38;99694.74;;;3.68;58.11
82311;BME280;72015;51.330;12.316;2023-12-29T08:00:02;99693.38;;;3.63;58.12
82311;BME280;72015;51.330;12.316;2023-12-29T08:04:26;99693.87;;;3.61;58.39
82311;BME280;72015;51.330;12.316;2023-12-29T08:08:50;99695.31;;;3.53;59.05
82311;BME280;72015;51.330;12.316;2023-12-29T08:13:14;99695.90;;;3.51;58.37
82311;BME280;72015;51.330;12.316;2023-12-29T08:17:38;99698.27;;;3.57;57.69
82311;BME280;72015;51.330;12.316;2023-12-29T08:22:02;99698.07;;;3.63;57.92
82311;BME280;72015;51.330;12.316;2023-12-29T08:26:26;99699.70;;;3.65;58.26
82311;BME280;72015;51.330;12.316;2023-12-29T08:30:50;99700.20;;;3.65;58.28
82311;BME280;72015;51.330;12.316;2023-12-29T08:35:14;99698.80;;;3.66;58.42
82311;BME280;72015;51.330;12.316;2023-12-29T08:39:38;99702.03;;;3.63;59.14
82311;BME280;72015;51.330;12.316;2023-12-29T08:44:02;99703.31;;;3.67;58.38
82311;BME280;72015;51.330;12.316;2023-12-29T08:48:26;99703.11;;;3.75;57.77
82311;BME280;72015;51.330;12.316;2023-12-29T08:52:50;99701.68;;;3.79;58.39
82311;BME280;72015;51.330;12.316;2023-12-29T08:57:14;99702.21;;;3.86;57.57
82311;BME280;72015;51.330;12.316;2023-12-29T09:01:38;99703.47;;;3.87;58.52
82311;BME280;72015;51.330;12.316;2023-12-29T09:06:02;99703.53;;;3.91;58.57
82311;BME280;72015;51.330;12.316;2023-12-29T09:10:26;99707.12;;;3.96;57.84
82311;BME280;72015;51.330;12.316;2023-12-29T09:14:50;99708.29;;;4.05;58.01
82311;BME280;72015;51.330;12.316;2023-12-29T09:19:14;99713.64;;;4.12;57.90
82311;BME280;72015;51.330;12.316;2023-12-29T09:23:38;99720.67;;;4.21;57.36
82311;BME280;72015;51.330;12.316;2023-12-29T09:28:02;99724.19;;;4.23;58.17
82311;BME280;72015;51.330;12.316;2023-12-29T09:32:26;99726.01;;;4.24;58.16
82311;BME280;72015;51.330;12.316;2023-12-29T09:36:50;99732.08;;;4.28;57.67
82311;BME280;72015;51.330;12.316;2023-12-29T09:41:15;99739.90;;;4.30;58.35
82311;BME280;72015;51.330;12.316;2023-12-29T09:45:38;99745.15;;;4.33;58.48
82311;BME280;72015;51.330;12.316;2023-12-29T09:50:03;99748.27;;;4.38;57.89
82311;BME280;72015;51.330;12.316;2023-12-29T09:54:26;99748.49;;;4.45;57.60
82311;BME280;72015;51.330;12.316;2023-12-29T09:58:51;99753.52;;;4.55;56.94
82311;BME280;72015;51.330;12.316;2023-12-29T10:03:14;99755.02;;;4.63;56.83
82311;BME280;72015;51.330;12.316;2023-12-29T10:07:39;99754.46;;;4.69;56.98
82311;BME280;72015;51.330;12.316;2023-12-29T10:12:03;99752.52;;;4.83;55.79
82311;BME280;72015;51.330;12.316;2023-12-29T10:16:32;99749.98;;;4.96;55.36
82311;BME280;72015;51.330;12.316;2023-12-29T10:25:14;99749.97;;;5.17;55.09
82311;BME280;72015;51.330;12.316;2023-12-29T10:29:39;99749.63;;;5.25;54.44
82311;BME280;72015;51.330;12.316;2023-12-29T10:38:26;99751.68;;;5.50;54.10
82311;BME280;72015;51.330;12.316;2023-12-29T10:42:51;99755.72;;;5.60;53.79
82311;BME280;72015;51.330;12.316;2023-12-29T10:47:14;99761.16;;;5.61;54.21
82311;BME280;72015;51.330;12.316;2023-12-29T10:51:39;99763.23;;;5.67;54.00
82311;BME280;72015;51.330;12.316;2023-12-29T10:56:03;99762.60;;;5.77;53.34
82311;BME280;72015;51.330;12.316;2023-12-29T11:00:29;99762.16;;;5.85;53.06
82311;BME280;72015;51.330;12.316;2023-12-29T11:04:51;99759.47;;;6.00;52.31
82311;BME280;72015;51.330;12.316;2023-12-29T11:09:19;99756.08;;;6.06;52.88
82311;BME280;72015;51.330;12.316;2023-12-29T11:13:39;99751.43;;;6.12;52.34
82311;BME280;72015;51.330;12.316;2023-12-29T11:18:03;99748.68;;;6.14;52.93
82311;BME280;72015;51.330;12.316;2023-12-29T11:22:30;99745.61;;;6.14;53.64
82311;BME280;72015;51.330;12.316;2023-12-29T11:26:51;99745.28;;;6.14;53.30
82311;BME280;72015;51.330;12.316;2023-12-29T11:31:16;99740.12;;;6.10;54.36
82311;BME280;72015;51.330;12.316;2023-12-29T11:40:07;99734.22;;;5.90;55.06
82311;BME280;72015;51.330;12.316;2023-12-29T11:44:27;99732.15;;;5.83;55.34
82311;BME280;72015;51.330;12.316;2023-12-29T11:48:54;99728.50;;;5.79;55.22
82311;BME280;72015;51.330;12.316;2023-12-29T11:53:31;99724.84;;;5.81;54.66
82311;BME280;72015;51.330;12.316;2023-12-29T11:57:39;99723.33;;;5.82;54.81
82311;BME280;72015;51.330;12.316;2023-12-29T12:02:03;99721.82;;;5.83;55.96
82311;BME280;72015;51.330;12.316;2023-12-29T12:10:50;99718.16;;;5.96;53.86
82311;BME280;72015;51.330;12.316;2023-12-29T12:19:38;99711.61;;;5.97;54.76
82311;BME280;72015;51.330;12.316;2023-12-29T12:24:03;99710.44;;;5.92;54.88
82311;BME280;72015;51.330;12.316;2023-12-29T12:28:26;99706.37;;;5.93;54.83
82311;BME280;72015;51.330;12.316;2023-12-29T12:41:38;99692.97;;;5.98;54.59
82311;BME280;72015;51.330;12.316;2023-12-29T12:46:03;99689.50;;;6.03;54.11
82311;BME280;72015;51.330;12.316;2023-12-29T12:50:26;99687.45;;;6.13;53.16
82311;BME280;72015;51.330;12.316;2023-12-29T12:54:50;99682.51;;;6.16;53.80
82311;BME280;72015;51.330;12.316;2023-12-29T12:59:15;99678.24;;;6.21;53.91
82311;BME280;72015;51.330;12.316;2023-12-29T13:03:38;99676.98;;;6.22;54.85
82311;BME280;72015;51.330;12.316;2023-12-29T13:08:03;99674.39;;;6.19;54.63
82311;BME280;72015;51.330;12.316;2023-12-29T13:12:26;99672.49;;;6.24;53.73
82311;BME280;72015;51.330;12.316;2023-12-29T13:16:50;99673.03;;;6.26;54.33
82311;BME280;72015;51.330;12.316;2023-12-29T13:21:16;99671.56;;;6.24;54.59
82311;BME280;72015;51.330;12.316;2023-12-29T13:25:39;99668.88;;;6.26;53.87
82311;BME280;72015;51.330;12.316;2023-12-29T13:30:03;99667.55;;;6.32;54.01
82311;BME280;72015;51.330;12.316;2023-12-29T13:35:11;99665.95;;;6.38;53.72
82311;BME280;72015;51.330;12.316;2023-12-29T13:38:53;99667.02;;;6.43;53.74
82311;BME280;72015;51.330;12.316;2023-12-29T13:43:14;99665.66;;;6.31;55.21
82311;BME280;72015;51.330;12.316;2023-12-29T13:47:39;99664.67;;;6.26;55.06
82311;BME280;72015;51.330;12.316;2023-12-29T13:52:03;99665.37;;;6.23;54.51
82311;BME280;72015;51.330;12.316;2023-12-29T13:56:27;99666.64;;;6.22;57.06
82311;BME280;72015;51.330;12.316;2023-12-29T14:00:53;99667.47;;;6.22;54.69
82311;BME280;72015;51.330;12.316;2023-12-29T14:05:18;99664.58;;;6.27;54.11
82311;BME280;72015;51.330;12.316;2023-12-29T14:09:39;99661.74;;;6.33;54.15
82311;BME280;72015;51.330;12.316;2023-12-29T14:14:03;99661.45;;;6.35;54.52
82311;BME280;72015;51.330;12.316;2023-12-29T14:19:11;99660.16;;;6.33;54.66
82311;BME280;72015;51.330;12.316;2023-12-29T14:22:51;99660.57;;;6.23;55.59
82311;BME280;72015;51.330;12.316;2023-12-29T14:27:15;99659.86;;;6.15;55.23
82311;BME280;72015;51.330;12.316;2023-12-29T14:31:39;99662.27;;;6.14;55.62
82311;BME280;72015;51.330;12.316;2023-12-29T14:36:03;99662.28;;;6.09;55.00
82311;BME280;72015;51.330;12.316;2023-12-29T14:40:27;99661.08;;;6.01;56.60
82311;BME280;72015;51.330;12.316;2023-12-29T14:44:51;99660.80;;;5.98;55.91
82311;BME280;72015;51.330;12.316;2023-12-29T14:49:15;99659.74;;;6.02;55.34
82311;BME280;72015;51.330;12.316;2023-12-29T14:53:39;99660.13;;;6.03;56.14
82311;BME280;72015;51.330;12.316;2023-12-29T14:58:03;99658.45;;;5.99;56.70
82311;BME280;72015;51.330;12.316;2023-12-29T15:02:27;99658.17;;;5.96;56.34
82311;BME280;72015;51.330;12.316;2023-12-29T15:06:51;99658.40;;;5.87;57.01
82311;BME280;72015;51.330;12.316;2023-12-29T15:11:15;99657.22;;;5.83;56.59
82311;BME280;72015;51.330;12.316;2023-12-29T15:15:39;99656.42;;;5.81;56.92
82311;BME280;72015;51.330;12.316;2023-12-29T15:20:03;99654.47;;;5.73;58.38
82311;BME280;72015;51.330;12.316;2023-12-29T15:24:27;99651.95;;;5.81;55.75
82311;BME280;72015;51.330;12.316;2023-12-29T15:28:51;99648.47;;;5.93;55.05
82311;BME280;72015;51.330;12.316;2023-12-29T15:33:15;99646.59;;;6.01;56.08
82311;BME280;72015;51.330;12.316;2023-12-29T15:37:39;99645.81;;;5.93;57.21
82311;BME280;72015;51.330;12.316;2023-12-29T15:42:04;99643.76;;;5.87;57.19
82311;BME280;72015;51.330;12.316;2023-12-29T15:46:27;99640.53;;;5.87;56.03
82311;BME280;72015;51.330;12.316;2023-12-29T15:50:51;99640.94;;;5.87;56.43
82311;BME280;72015;51.330;12.316;2023-12-29T15:55:15;99641.24;;;5.85;56.38
82311;BME280;72015;51.330;12.316;2023-12-29T15:59:39;99643.65;;;5.73;57.72
82311;BME280;72015;51.330;12.316;2023-12-29T16:04:03;99645.58;;;5.71;56.91
82311;BME280;72015;51.330;12.316;2023-12-29T16:08:27;99651.31;;;5.75;56.09
82311;BME280;72015;51.330;12.316;2023-12-29T16:12:51;99653.50;;;5.72;57.44
82311;BME280;72015;51.330;12.316;2023-12-29T16:17:15;99654.58;;;5.66;57.13
82311;BME280;72015;51.330;12.316;2023-12-29T16:21:39;99654.46;;;5.69;57.17
82311;BME280;72015;51.330;12.316;2023-12-29T16:26:07;99656.18;;;5.75;56.02
82311;BME280;72015;51.330;12.316;2023-12-29T16:30:27;99656.99;;;5.92;53.96
82311;BME280;72015;51.330;12.316;2023-12-29T16:34:51;99655.40;;;6.04;55.09
82311;BME280;72015;51.330;12.316;2023-12-29T16:39:15;99653.74;;;6.10;55.36
82311;BME280;72015;51.330;12.316;2023-12-29T16:43:39;99651.65;;;6.11;55.43
82311;BME280;72015;51.330;12.316;2023-12-29T16:48:03;99648.08;;;6.07;56.27
82311;BME280;72015;51.330;12.316;2023-12-29T16:52:27;99640.63;;;6.01;56.75
82311;BME280;72015;51.330;12.316;2023-12-29T16:56:51;99633.56;;;5.94;57.25
82311;BME280;72015;51.330;12.316;2023-12-29T17:01:15;99628.83;;;5.89;57.12
82311;BME280;72015;51.330;12.316;2023-12-29T17:05:40;99626.79;;;5.77;58.52
82311;BME280;72015;51.330;12.316;2023-12-29T17:10:04;99624.06;;;5.66;58.35
82311;BME280;72015;51.330;12.316;2023-12-29T17:14:27;99621.59;;;5.60;58.18
82311;BME280;72015;51.330;12.316;2023-12-29T17:18:51;99620.75;;;5.53;57.95
82311;BME280;72015;51.330;12.316;2023-12-29T17:23:15;99619.34;;;5.54;57.47
82311;BME280;72015;51.330;12.316;2023-12-29T17:27:39;99617.31;;;5.51;57.61
82311;BME280;72015;51.330;12.316;2023-12-29T17:32:03;99616.20;;;5.48;57.67
82311;BME280;72015;51.330;12.316;2023-12-29T17:36:27;99616.31;;;5.43;58.44
82311;BME280;72015;51.330;12.316;2023-12-29T17:40:51;99615.30;;;5.45;57.09
82311;BME280;72015;51.330;12.316;2023-12-29T17:45:15;99614.61;;;5.49;56.88
82311;BME280;72015;51.330;12.316;2023-12-29T17:49:42;99613.32;;;5.58;56.31
82311;BME280;72015;51.330;12.316;2023-12-29T17:54:03;99613.40;;;5.58;56.92
82311;BME280;72015;51.330;12.316;2023-12-29T17:58:28;99613.84;;;5.65;56.65
82311;BME280;72015;51.330;12.316;2023-12-29T18:02:51;99615.88;;;5.66;57.09
82311;BME280;72015;51.330;12.316;2023-12-29T18:07:15;99619.06;;;5.69;56.42
82311;BME280;72015;51.330;12.316;2023-12-29T18:11:40;99622.03;;;5.75;55.73
82311;BME280;72015;51.330;12.316;2023-12-29T18:16:07;99624.13;;;5.83;55.29
82311;BME280;72015;51.330;12.316;2023-12-29T18:20:27;99624.73;;;5.92;55.19
82311;BME280;72015;51.330;12.316;2023-12-29T18:24:51;99625.60;;;5.90;55.98
82311;BME280;72015;51.330;12.316;2023-12-29T18:29:16;99627.26;;;5.94;55.17
82311;BME280;72015;51.330;12.316;2023-12-29T18:33:40;99627.19;;;5.99;55.27
82311;BME280;72015;51.330;12.316;2023-12-29T18:38:04;99623.05;;;6.14;53.90
82311;BME280;72015;51.330;12.316;2023-12-29T18:42:28;99621.30;;;6.14;54.89
82311;BME280;72015;51.330;12.316;2023-12-29T18:46:52;99619.16;;;6.09;55.56
82311;BME280;72015;51.330;12.316;2023-12-29T18:51:16;99617.66;;;6.00;56.61
82311;BME280;72015;51.330;12.316;2023-12-29T18:55:40;99617.75;;;6.04;55.03
82311;BME280;72015;51.330;12.316;2023-12-29T19:00:04;99617.60;;;6.09;55.98
82311;BME280;72015;51.330;12.316;2023-12-29T19:04:28;99617.22;;;6.11;56.07
82311;BME280;72015;51.330;12.316;2023-12-29T19:08:52;99617.36;;;6.19;54.90
82311;BME280;72015;51.330;12.316;2023-12-29T19:13:16;99618.27;;;6.24;54.97
82311;BME280;72015;51.330;12.316;2023-12-29T19:17:40;99619.46;;;6.31;54.24
82311;BME280;72015;51.330;12.316;2023-12-29T19:22:03;99619.21;;;6.32;54.74
82311;BME280;72015;51.330;12.316;2023-12-29T19:26:27;99618.93;;;6.33;54.48
82311;BME280;72015;51.330;12.316;2023-12-29T19:30:51;99619.51;;;6.42;53.86
82311;BME280;72015;51.330;12.316;2023-12-29T19:35:15;99619.75;;;6.43;54.36
82311;BME280;72015;51.330;12.316;2023-12-29T19:39:42;99620.65;;;6.38;54.12
82311;BME280;72015;51.330;12.316;2023-12-29T19:44:04;99619.55;;;6.36;54.64
82311;BME280;72015;51.330;12.316;2023-12-29T19:48:27;99618.31;;;6.40;54.24
82311;BME280;72015;51.330;12.316;2023-12-29T19:52:51;99618.69;;;6.42;53.88
82311;BME280;72015;51.330;12.316;2023-12-29T19:57:16;99615.80;;;6.46;54.20
82311;BME280;72015;51.330;12.316;2023-12-29T20:01:42;99613.37;;;6.43;54.34
82311;BME280;72015;51.330;12.316;2023-12-29T20:06:04;99610.15;;;6.52;53.13
82311;BME280;72015;51.330;12.316;2023-12-29T20:10:27;99609.64;;;6.52;54.17
82311;BME280;72015;51.330;12.316;2023-12-29T20:14:51;99607.39;;;6.35;56.30
82311;BME280;72015;51.330;12.316;2023-12-29T20:19:15;99604.88;;;6.23;55.98
82311;BME280;72015;51.330;12.316;2023-12-29T20:23:39;99601.56;;;6.18;54.87
82311;BME280;72015;51.330;12.316;2023-12-29T20:28:03;99597.13;;;6.21;54.71
82311;BME280;72015;51.330;12.316;2023-12-29T20:32:27;99594.83;;;6.25;54.31
82311;BME280;72015;51.330;12.316;2023-12-29T20:36:51;99593.45;;;6.28;54.55
82311;BME280;72015;51.330;12.316;2023-12-29T20:41:18;99592.27;;;6.25;54.83
82311;BME280;72015;51.330;12.316;2023-12-29T20:45:39;99589.23;;;6.19;55.98
82311;BME280;72015;51.330;12.316;2023-12-29T20:50:04;99589.51;;;6.10;56.07
82311;BME280;72015;51.330;12.316;2023-12-29T20:54:27;99588.19;;;6.06;55.98
82311;BME280;72015;51.330;12.316;2023-12-29T20:58:51;99584.38;;;6.01;55.37
82311;BME280;72015;51.330;12.316;2023-12-29T21:03:15;99578.78;;;6.04;54.81
82311;BME280;72015;51.330;12.316;2023-12-29T21:07:40;99576.09;;;6.06;55.22
82311;BME280;72015;51.330;12.316;2023-12-29T21:12:04;99570.97;;;6.06;55.73
82311;BME280;72015;51.330;12.316;2023-12-29T21:16:27;99566.49;;;5.98;56.65
82311;BME280;72015;51.330;12.316;2023-12-29T21:20:51;99566.16;;;5.77;57.78
82311;BME280;72015;51.330;12.316;2023-12-29T21:25:16;99562.59;;;5.73;56.59
82311;BME280;72015;51.330;12.316;2023-12-29T21:29:40;99558.92;;;5.65;56.69
82311;BME280;72015;51.330;12.316;2023-12-29T21:34:04;99553.78;;;5.61;56.72
82311;BME280;72015;51.330;12.316;2023-12-29T21:38:28;99547.55;;;5.63;56.55
82311;BME280;72015;51.330;12.316;2023-12-29T21:42:52;99542.03;;;5.71;55.31
82311;BME280;72015;51.330;12.316;2023-12-29T21:47:16;99542.27;;;5.72;56.15
82311;BME280;72015;51.330;12.316;2023-12-29T21:51:40;99540.69;;;5.77;54.86
82311;BME280;72015;51.330;12.316;2023-12-29T21:56:04;99538.90;;;5.80;55.86
82311;BME280;72015;51.330;12.316;2023-12-29T22:00:28;99538.06;;;5.91;54.48
82311;BME280;72015;51.330;12.316;2023-12-29T22:04:52;99539.31;;;5.81;56.43
82311;BME280;72015;51.330;12.316;2023-12-29T22:09:16;99543.45;;;5.75;56.12
82311;BME280;72015;51.330;12.316;2023-12-29T22:13:40;99545.15;;;5.77;55.14
82311;BME280;72015;51.330;12.316;2023-12-29T22:18:04;99546.26;;;5.80;55.85
82311;BME280;72015;51.330;12.316;2023-12-29T22:22:28;99548.60;;;5.79;56.09
82311;BME280;72015;51.330;12.316;2023-12-29T22:26:52;99551.40;;;5.74;56.13
82311;BME280;72015;51.330;12.316;2023-12-29T22:31:17;99553.86;;;5.76;55.68
82311;BME280;72015;51.330;12.316;2023-12-29T22:35:40;99559.44;;;5.69;56.39
82311;BME280;72015;51.330;12.316;2023-12-29T22:40:04;99567.11;;;5.65;56.79
82311;BME280;72015;51.330;12.316;2023-12-29T22:44:28;99576.51;;;5.48;58.81
82311;BME280;72015;51.330;12.316;2023-12-29T22:48:52;99578.94;;;5.27;59.84
82311;BME280;72015;51.330;12.316;2023-12-29T22:53:16;99579.41;;;5.18;59.39
82311;BME280;72015;51.330;12.316;2023-12-29T22:57:40;99581.67;;;5.16;59.23
82311;BME280;72015;51.330;12.316;2023-12-29T23:02:04;99576.57;;;5.08;60.38
82311;BME280;72015;51.330;12.316;2023-12-29T23:06:28;99574.06;;;5.04;60.26
82311;BME280;72015;51.330;12.316;2023-12-29T23:10:52;99571.88;;;5.06;58.73
82311;BME280;72015;51.330;12.316;2023-12-29T23:15:16;99570.47;;;5.19;58.03
82311;BME280;72015;51.330;12.316;2023-12-29T23:19:40;99569.81;;;5.36;57.45
82311;BME280;72015;51.330;12.316;2023-12-29T23:24:05;99569.22;;;5.55;56.24
82311;BME280;72015;51.330;12.316;2023-12-29T23:28:28;99570.17;;;5.70;56.84
82311;BME280;72015;51.330;12.316;2023-12-29T23:32:52;99571.73;;;5.81;56.35
82311;BME280;72015;51.330;12.316;2023-12-29T23:37:17;99572.14;;;5.86;56.06
82311;BME280;72015;51.330;12.316;2023-12-29T23:41:40;99572.39;;;5.95;55.11
82311;BME280;72015;51.330;12.316;2023-12-29T23:46:04;99572.85;;;5.98;55.48
82311;BME280;72015;51.330;12.316;2023-12-29T23:50:28;99573.81;;;5.95;55.69